Time;durP1;ratioP1;P1;durP2;ratioP2;P2;SDS_P1;SDS_P2;PMS_P1;PMS_P2;Temp;Humidity;BMP_temperature;BMP_pressure;BME280_temperature;BME280_humidity;BME280_pressure;Samples;Min_cycle;Max_cycle;Signal;HPM_P1;HPM_P2
2021/06/06 00:00:58;;;;;;;3.07;2.43;;;16.30;99.90;;;;;;5058573;28;20183;-74
2021/06/06 00:03:37;;;;;;;4.00;2.17;;;16.30;99.90;;;;;;5063435;28;20187;-74
2021/06/06 00:06:34;;;;;;;6.40;2.20;;;16.30;99.90;;;;;;5051384;28;20268;-73
2021/06/06 00:09:01;;;;;;;3.40;1.90;;;16.30;99.90;;;;;;5060956;28;20183;-72
2021/06/06 00:11:38;;;;;;;3.83;1.70;;;16.20;99.90;;;;;;5049577;28;20187;-71
2021/06/06 00:14:10;;;;;;;5.77;2.10;;;16.20;99.90;;;;;;5066423;28;20190;-74
2021/06/06 00:16:45;;;;;;;5.20;1.93;;;16.20;99.90;;;;;;5062124;28;20167;-73
2021/06/06 00:19:13;;;;;;;3.50;1.83;;;16.20;99.90;;;;;;5056525;28;20901;-71
2021/06/06 00:21:41;;;;;;;2.93;1.90;;;16.30;99.90;;;;;;5059824;28;20188;-73
2021/06/06 00:24:11;;;;;;;3.43;2.10;;;16.20;99.90;;;;;;5065154;28;20651;-74
2021/06/06 00:26:38;;;;;;;3.03;2.20;;;16.20;99.90;;;;;;5063090;28;20191;-69
2021/06/06 00:29:05;;;;;;;2.93;2.00;;;16.10;99.90;;;;;;5064041;28;20206;-72
2021/06/06 00:31:31;;;;;;;5.70;2.30;;;16.00;99.90;;;;;;5064450;28;20191;-72
2021/06/06 00:33:57;;;;;;;4.83;2.00;;;15.90;99.90;;;;;;5060973;28;20186;-75
2021/06/06 00:36:25;;;;;;;4.20;2.27;;;16.00;99.90;;;;;;5053764;28;20179;-72
2021/06/06 00:38:51;;;;;;;3.37;2.03;;;16.00;99.90;;;;;;5062265;28;20180;-72
2021/06/06 00:41:22;;;;;;;5.43;2.07;;;16.10;99.90;;;;;;5044823;28;20521;-73
2021/06/06 00:43:48;;;;;;;3.00;1.90;;;16.10;99.90;;;;;;5067310;28;20175;-72
2021/06/06 00:46:21;;;;;;;4.83;2.30;;;16.10;99.90;;;;;;5062474;28;20181;-72
2021/06/06 00:48:48;;;;;;;3.23;1.90;;;16.00;99.90;;;;;;5063304;28;20180;-75
2021/06/06 00:51:22;;;;;;;8.87;2.27;;;16.00;99.90;;;;;;5060269;28;20218;-73
2021/06/06 00:53:54;;;;;;;2.53;1.93;;;16.00;99.90;;;;;;5059494;28;20183;-72
2021/06/06 00:56:27;;;;;;;5.83;2.07;;;16.00;99.90;;;;;;5062164;28;20195;-73
2021/06/06 00:58:58;;;;;;;2.67;1.90;;;16.00;99.90;;;;;;5061635;28;20176;-75
2021/06/06 01:01:26;;;;;;;2.87;1.90;;;16.00;99.90;;;;;;5060573;28;20640;-72
2021/06/06 01:03:56;;;;;;;5.33;2.00;;;15.90;99.90;;;;;;5059996;28;20291;-71
2021/06/06 01:06:35;;;;;;;9.37;2.10;;;15.90;99.90;;;;;;5063120;28;20332;-70
2021/06/06 01:09:06;;;;;;;4.63;2.07;;;15.90;99.90;;;;;;5062018;28;20196;-72
2021/06/06 01:12:08;;;;;;;6.77;1.87;;;15.90;99.90;;;;;;5061953;28;20186;-70
2021/06/06 01:15:02;;;;;;;5.27;2.03;;;15.90;99.90;;;;;;5060683;28;20222;-71
2021/06/06 01:18:07;;;;;;;5.27;2.17;;;15.90;99.90;;;;;;5056042;28;20869;-70
2021/06/06 01:21:15;;;;;;;6.30;2.07;;;15.80;99.90;;;;;;5064530;28;20311;-71
2021/06/06 01:24:06;;;;;;;3.70;1.90;;;15.80;99.90;;;;;;5063942;28;20194;-70
2021/06/06 01:27:19;;;;;;;3.67;2.37;;;15.80;99.90;;;;;;5047724;28;20293;-75
2021/06/06 01:30:17;;;;;;;5.93;1.97;;;15.80;99.90;;;;;;5062916;28;20194;-72
2021/06/06 01:33:04;;;;;;;3.97;1.83;;;15.80;99.90;;;;;;5057234;28;20702;-71
2021/06/06 01:35:42;;;;;;;5.10;2.10;;;15.70;99.90;;;;;;5059063;28;20203;-73
2021/06/06 01:39:00;;;;;;;3.47;2.17;;;15.70;99.90;;;;;;5047902;28;20317;-75
2021/06/06 01:41:37;;;;;;;3.40;2.03;;;15.70;99.90;;;;;;5057559;28;20627;-72
2021/06/06 01:44:16;;;;;;;4.57;2.10;;;15.70;99.90;;;;;;5062334;28;20178;-72
2021/06/06 01:46:58;;;;;;;3.13;2.00;;;15.70;99.90;;;;;;5044444;28;20195;-72
2021/06/06 01:49:27;;;;;;;6.60;2.13;;;15.80;99.90;;;;;;5062277;28;20193;-72
2021/06/06 01:52:02;;;;;;;6.07;2.40;;;15.80;99.90;;;;;;5060930;28;20613;-73
2021/06/06 01:54:35;;;;;;;6.07;1.93;;;15.80;99.90;;;;;;5057949;28;20202;-74
2021/06/06 01:57:02;;;;;;;6.33;1.80;;;15.80;99.90;;;;;;5061807;28;20178;-72
2021/06/06 01:59:37;;;;;;;2.90;2.07;;;15.80;99.90;;;;;;5062337;28;20221;-71
2021/06/06 02:02:06;;;;;;;6.13;1.90;;;15.80;99.90;;;;;;5055458;28;20269;-71
2021/06/06 02:04:35;;;;;;;3.00;1.90;;;15.80;99.90;;;;;;5059553;28;20182;-72
2021/06/06 02:07:33;;;;;;;5.00;2.23;;;15.80;99.90;;;;;;5085368;28;20194;-71
2021/06/06 02:10:28;;;;;;;6.97;1.87;;;15.70;99.90;;;;;;5059244;28;20214;-72
2021/06/06 02:13:23;;;;;;;5.10;1.97;;;15.70;99.90;;;;;;5061371;28;20210;-71
2021/06/06 02:16:00;;;;;;;3.93;2.10;;;15.60;99.90;;;;;;5044612;28;20206;-72
2021/06/06 02:18:29;;;;;;;5.93;1.90;;;15.60;99.90;;;;;;5057786;28;20178;-72
2021/06/06 02:20:57;;;;;;;3.53;2.07;;;15.60;99.90;;;;;;5044523;28;20184;-71
2021/06/06 02:23:32;;;;;;;2.60;1.50;;;15.50;99.90;;;;;;5061084;28;20315;-71
2021/06/06 02:26:14;;;;;;;2.27;1.77;;;15.70;99.90;;;;;;5062216;28;20202;-71
2021/06/06 02:28:52;;;;;;;4.37;1.90;;;15.70;99.90;;;;;;5063045;28;20198;-72
2021/06/06 02:32:09;;;;;;;3.63;1.97;;;15.60;99.90;;;;;;5058842;28;20236;-72
2021/06/06 02:35:19;;;;;;;5.63;1.83;;;15.70;99.90;;;;;;5058531;28;20218;-73
2021/06/06 02:38:00;;;;;;;4.10;1.70;;;15.70;99.90;;;;;;5063135;28;20194;-74
2021/06/06 02:40:44;;;;;;;9.03;1.83;;;15.70;99.90;;;;;;5044968;28;20194;-71
2021/06/06 02:43:26;;;;;;;3.37;1.80;;;15.70;99.90;;;;;;5057826;28;20195;-72
2021/06/06 02:45:57;;;;;;;8.57;1.93;;;15.60;99.90;;;;;;5057897;28;20218;-72
2021/06/06 02:48:43;;;;;;;2.70;1.50;;;15.50;99.90;;;;;;5046596;28;20184;-72
2021/06/06 02:51:16;;;;;;;4.20;1.93;;;15.50;99.90;;;;;;5056102;28;20200;-74
2021/06/06 02:53:57;;;;;;;2.20;1.60;;;15.50;99.90;;;;;;5062544;28;20187;-74
2021/06/06 02:56:30;;;;;;;4.90;2.20;;;15.50;99.90;;;;;;5060708;28;20180;-72
2021/06/06 02:59:04;;;;;;;3.33;1.77;;;15.50;99.90;;;;;;5062584;28;20191;-72
2021/06/06 03:01:38;;;;;;;3.00;1.63;;;15.40;99.90;;;;;;5061505;28;20186;-72
2021/06/06 03:04:21;;;;;;;4.27;1.90;;;15.40;99.90;;;;;;5063580;28;20187;-72
2021/06/06 03:07:14;;;;;;;4.40;1.77;;;15.30;99.90;;;;;;5062671;28;20209;-71
2021/06/06 03:09:41;;;;;;;3.00;1.60;;;15.40;99.90;;;;;;5061598;28;20252;-71
2021/06/06 03:12:12;;;;;;;5.77;1.90;;;15.40;99.90;;;;;;5062168;28;20356;-71
2021/06/06 03:14:43;;;;;;;6.10;2.00;;;15.40;99.90;;;;;;5059864;28;20215;-71
2021/06/06 03:17:31;;;;;;;3.63;1.67;;;15.40;99.90;;;;;;5060845;28;20192;-73
2021/06/06 03:20:05;;;;;;;5.27;1.80;;;15.40;99.90;;;;;;5090673;28;20209;-72
2021/06/06 03:22:36;;;;;;;2.23;1.57;;;15.40;99.90;;;;;;5058682;28;20210;-74
2021/06/06 03:26:01;;;;;;;7.67;2.20;;;15.40;99.90;;;;;;5074398;28;20260;-74
2021/06/06 03:28:37;;;;;;;2.73;1.67;;;15.40;99.90;;;;;;5056421;28;20595;-73
2021/06/06 03:31:23;;;;;;;1.70;1.60;;;15.50;99.90;;;;;;5060582;28;20176;-73
2021/06/06 03:33:58;;;;;;;2.43;1.60;;;15.50;99.90;;;;;;5062953;28;20191;-71
2021/06/06 03:36:39;;;;;;;2.53;1.70;;;15.50;99.90;;;;;;5061342;28;20186;-72
2021/06/06 03:39:12;;;;;;;2.80;1.70;;;15.60;99.90;;;;;;5059880;28;20198;-73
2021/06/06 03:41:39;;;;;;;6.17;1.83;;;15.50;99.90;;;;;;5064163;28;20184;-72
2021/06/06 03:44:06;;;;;;;4.37;1.90;;;15.50;99.90;;;;;;5063576;28;20202;-72
2021/06/06 03:46:35;;;;;;;3.43;1.93;;;15.50;99.90;;;;;;5062131;28;20218;-75
2021/06/06 03:49:01;;;;;;;1.73;1.50;;;15.60;99.90;;;;;;5064093;28;20182;-72
2021/06/06 03:51:29;;;;;;;3.33;1.73;;;15.60;99.90;;;;;;5061771;28;20902;-71
2021/06/06 03:53:55;;;;;;;3.60;1.80;;;15.50;99.90;;;;;;5063579;28;20262;-71
2021/06/06 03:56:24;;;;;;;3.83;1.90;;;15.50;99.90;;;;;;5063786;28;20250;-72
2021/06/06 03:58:50;;;;;;;6.30;1.97;;;15.50;99.90;;;;;;5049738;28;20182;-71
2021/06/06 04:01:17;;;;;;;3.03;1.70;;;15.40;99.90;;;;;;5061679;28;20183;-73
2021/06/06 04:03:44;;;;;;;3.23;1.60;;;15.50;99.90;;;;;;5077797;28;20563;-73
2021/06/06 04:06:10;;;;;;;9.70;1.90;;;15.50;99.90;;;;;;5048559;28;20664;-73
2021/06/06 04:08:36;;;;;;;3.47;1.67;;;15.60;99.90;;;;;;5063730;28;20230;-72
2021/06/06 04:11:04;;;;;;;5.97;2.07;;;15.70;99.90;;;;;;5061165;28;20195;-72
2021/06/06 04:13:30;;;;;;;2.40;1.60;;;15.80;99.90;;;;;;5059141;28;20198;-73
2021/06/06 04:15:58;;;;;;;6.70;2.00;;;15.90;99.90;;;;;;5059126;28;20206;-71
2021/06/06 04:18:31;;;;;;;2.20;1.60;;;16.00;99.90;;;;;;5062857;28;20187;-71
2021/06/06 04:21:02;;;;;;;3.50;1.87;;;16.00;99.90;;;;;;5060865;28;20183;-72
2021/06/06 04:23:29;;;;;;;3.07;1.60;;;16.10;99.90;;;;;;5056168;28;20191;-71
2021/06/06 04:25:55;;;;;;;5.80;2.03;;;16.20;99.90;;;;;;5059912;28;20195;-71
2021/06/06 04:28:23;;;;;;;4.20;1.73;;;16.40;99.90;;;;;;5063161;28;20826;-72
2021/06/06 04:30:52;;;;;;;3.00;2.00;;;16.60;99.90;;;;;;5061089;28;20183;-72
2021/06/06 04:33:19;;;;;;;2.63;1.70;;;16.70;99.90;;;;;;5062058;28;20195;-71
2021/06/06 04:35:46;;;;;;;4.43;1.80;;;16.90;99.90;;;;;;5060346;28;20218;-73
2021/06/06 04:38:18;;;;;;;3.77;1.87;;;17.10;99.90;;;;;;5045096;28;20182;-71
2021/06/06 04:40:44;;;;;;;5.63;1.90;;;17.30;99.90;;;;;;5076208;28;20245;-72
2021/06/06 04:43:11;;;;;;;3.77;1.90;;;17.30;99.90;;;;;;5061968;28;20926;-73
2021/06/06 04:45:38;;;;;;;3.00;1.63;;;17.30;99.90;;;;;;5059618;28;20190;-74
2021/06/06 04:48:21;;;;;;;2.23;1.80;;;17.30;99.90;;;;;;5063194;28;20198;-71
2021/06/06 04:50:50;;;;;;;3.07;1.80;;;17.40;99.90;;;;;;5051604;28;20351;-72
2021/06/06 04:53:18;;;;;;;4.13;1.73;;;17.50;99.90;;;;;;5064386;28;20244;-74
2021/06/06 04:55:46;;;;;;;2.67;1.73;;;17.60;99.90;;;;;;5062263;28;20278;-74
2021/06/06 04:58:20;;;;;;;2.47;1.43;;;17.60;99.90;;;;;;5071428;28;20904;-74
2021/06/06 05:00:48;;;;;;;3.90;1.80;;;17.70;99.90;;;;;;5086061;28;20183;-74
2021/06/06 05:03:16;;;;;;;3.67;1.90;;;18.10;99.90;;;;;;5065167;28;20571;-73
2021/06/06 05:05:43;;;;;;;3.80;1.70;;;18.30;99.90;;;;;;5063024;28;20218;-74
2021/06/06 05:08:12;;;;;;;2.63;1.83;;;18.20;99.90;;;;;;5061126;28;20623;-75
2021/06/06 05:10:42;;;;;;;2.93;1.83;;;18.40;99.90;;;;;;5058056;28;20273;-73
2021/06/06 05:13:09;;;;;;;5.77;1.87;;;18.40;99.90;;;;;;5086257;28;20308;-73
2021/06/06 05:15:37;;;;;;;2.67;1.70;;;18.30;99.90;;;;;;5063139;28;20218;-75
2021/06/06 05:18:05;;;;;;;3.60;1.60;;;18.40;99.90;;;;;;5063945;28;20191;-75
2021/06/06 05:20:37;;;;;;;3.67;1.63;;;18.60;99.90;;;;;;5062121;28;20194;-72
2021/06/06 05:23:06;;;;;;;5.30;2.20;;;18.70;99.90;;;;;;5054978;28;20195;-72
2021/06/06 05:25:35;;;;;;;4.07;1.90;;;19.00;99.90;;;;;;5061548;28;20209;-74
2021/06/06 05:28:04;;;;;;;3.20;1.80;;;19.10;99.90;;;;;;5060954;28;20221;-72
2021/06/06 05:30:37;;;;;;;6.33;2.00;;;19.10;99.90;;;;;;5060214;28;20190;-74
2021/06/06 05:33:05;;;;;;;5.20;1.83;;;19.40;99.90;;;;;;5061975;28;20199;-73
2021/06/06 05:35:35;;;;;;;4.03;1.70;;;19.70;99.90;;;;;;5056877;28;20218;-76
2021/06/06 05:38:03;;;;;;;6.17;1.83;;;20.10;99.90;;;;;;5056638;28;20219;-74
2021/06/06 05:40:32;;;;;;;4.17;1.90;;;20.30;99.90;;;;;;5059838;28;20224;-72
2021/06/06 05:42:59;;;;;;;3.40;1.47;;;20.60;99.90;;;;;;5043977;28;20325;-72
2021/06/06 05:45:26;;;;;;;7.97;1.60;;;20.70;99.90;;;;;;5062458;28;20259;-72
2021/06/06 05:47:53;;;;;;;4.90;1.60;;;20.80;99.90;;;;;;5057512;28;20267;-71
2021/06/06 05:50:26;;;;;;;2.13;1.60;;;20.60;99.90;;;;;;5059479;28;20696;-72
2021/06/06 05:52:53;;;;;;;2.17;1.63;;;20.80;99.90;;;;;;5063466;28;20191;-73
2021/06/06 05:55:21;;;;;;;2.13;1.60;;;20.50;99.90;;;;;;5063140;28;20210;-73
2021/06/06 05:57:49;;;;;;;3.03;1.93;;;21.00;99.90;;;;;;5060304;28;20243;-72
2021/06/06 06:00:32;;;;;;;4.37;1.90;;;21.00;99.90;;;;;;5060910;28;20214;-72
2021/06/06 06:02:58;;;;;;;4.90;1.80;;;21.10;99.90;;;;;;5059283;28;20194;-74
2021/06/06 06:05:25;;;;;;;4.50;1.93;;;21.30;99.90;;;;;;5063403;28;20206;-72
2021/06/06 06:07:52;;;;;;;4.47;2.10;;;21.50;99.90;;;;;;5059595;28;20223;-70
2021/06/06 06:10:27;;;;;;;8.27;2.17;;;21.50;99.90;;;;;;5063468;28;20243;-75
2021/06/06 06:12:56;;;;;;;10.30;2.03;;;21.60;99.90;;;;;;5060160;28;20822;-73
2021/06/06 06:15:23;;;;;;;2.90;1.70;;;21.70;99.90;;;;;;5063846;28;20206;-71
2021/06/06 06:17:50;;;;;;;4.33;1.73;;;21.80;99.90;;;;;;5041636;28;21214;-74
2021/06/06 06:20:20;;;;;;;4.00;1.50;;;21.80;99.90;;;;;;5055319;28;20192;-70
2021/06/06 06:22:48;;;;;;;6.47;1.80;;;21.70;99.90;;;;;;5058718;28;20214;-74
2021/06/06 06:25:18;;;;;;;4.90;1.80;;;21.90;99.90;;;;;;5037861;28;20214;-73
2021/06/06 06:27:46;;;;;;;4.30;2.00;;;22.00;99.90;;;;;;5058633;28;20273;-74
2021/06/06 06:30:20;;;;;;;3.47;2.03;;;22.10;99.90;;;;;;5061581;28;20704;-72
2021/06/06 06:32:46;;;;;;;5.10;2.17;;;22.10;99.90;;;;;;5058626;28;20293;-72
2021/06/06 06:35:12;;;;;;;4.23;1.90;;;22.30;99.90;;;;;;5077816;28;20217;-71
2021/06/06 06:37:39;;;;;;;7.07;1.80;;;22.40;99.90;;;;;;5061010;28;20195;-72
2021/06/06 06:40:10;;;;;;;4.13;1.70;;;22.40;99.90;;;;;;5063003;28;20201;-72
2021/06/06 06:42:37;;;;;;;9.43;2.40;;;22.50;99.90;;;;;;5060334;28;20603;-71
2021/06/06 06:45:12;;;;;;;4.03;1.83;;;22.60;99.90;;;;;;5061228;28;20190;-72
2021/06/06 06:47:39;;;;;;;5.73;1.70;;;22.60;99.90;;;;;;5067756;28;20597;-72
2021/06/06 06:50:08;;;;;;;7.93;1.90;;;22.70;99.90;;;;;;5048095;28;20187;-73
2021/06/06 06:52:37;;;;;;;4.40;1.70;;;22.80;99.90;;;;;;5044443;28;20191;-72
2021/06/06 06:55:17;;;;;;;4.40;1.90;;;22.90;99.90;;;;;;5063624;28;20212;-73
2021/06/06 06:57:44;;;;;;;6.97;2.17;;;22.90;99.90;;;;;;5063039;28;20186;-72
2021/06/06 07:00:29;;;;;;;3.33;1.70;;;23.00;99.90;;;;;;5061787;28;20217;-73
2021/06/06 07:02:56;;;;;;;8.87;1.60;;;23.00;99.90;;;;;;5074877;28;20266;-71
2021/06/06 07:05:22;;;;;;;4.77;1.90;;;23.20;99.90;;;;;;5050356;28;20211;-70
2021/06/06 07:07:49;;;;;;;5.20;1.73;;;23.20;99.90;;;;;;5063687;28;20187;-71
2021/06/06 07:10:22;;;;;;;5.23;2.13;;;23.30;99.90;;;;;;5058966;28;20207;-70
2021/06/06 07:12:49;;;;;;;4.70;1.77;;;23.40;99.90;;;;;;5063342;28;20182;-71
2021/06/06 07:15:17;;;;;;;7.60;1.80;;;23.50;99.90;;;;;;5050047;28;20226;-69
2021/06/06 07:17:44;;;;;;;6.13;1.87;;;23.50;99.90;;;;;;5063648;28;20562;-70
2021/06/06 07:20:17;;;;;;;2.87;1.60;;;23.60;99.90;;;;;;5060154;28;20551;-72
2021/06/06 07:22:44;;;;;;;2.53;1.70;;;23.80;99.90;;;;;;5064111;28;20179;-70
2021/06/06 07:25:14;;;;;;;3.63;1.80;;;24.00;99.90;;;;;;5063612;28;20202;-71
2021/06/06 07:27:44;;;;;;;7.20;1.98;;;24.10;99.90;;;;;;5056733;28;20258;-72
2021/06/06 07:30:16;;;;;;;4.37;1.80;;;24.00;99.90;;;;;;5048526;28;20493;-73
2021/06/06 07:32:43;;;;;;;5.03;2.17;;;24.30;99.90;;;;;;5064035;28;20636;-73
2021/06/06 07:35:11;;;;;;;4.33;1.73;;;24.30;99.90;;;;;;5064989;28;20218;-70
2021/06/06 07:37:38;;;;;;;3.57;1.97;;;24.40;99.90;;;;;;5064096;28;20194;-70
2021/06/06 07:40:09;;;;;;;5.70;1.90;;;24.50;99.90;;;;;;5061301;28;20195;-69
2021/06/06 07:42:36;;;;;;;5.75;2.03;;;24.60;99.90;;;;;;5066633;28;20205;-71
2021/06/06 07:45:08;;;;;;;5.90;1.90;;;24.60;99.90;;;;;;5055857;28;20199;-72
2021/06/06 07:47:34;;;;;;;7.27;2.27;;;24.50;99.90;;;;;;5062485;28;21077;-70
2021/06/06 07:50:02;;;;;;;7.07;2.00;;;24.70;99.90;;;;;;5056177;28;20191;-73
2021/06/06 07:52:28;;;;;;;8.83;1.87;;;24.70;99.90;;;;;;5066494;28;20290;-71
2021/06/06 07:54:55;;;;;;;3.40;1.80;;;24.80;99.90;;;;;;5071219;28;20221;-72
2021/06/06 07:57:21;;;;;;;5.38;2.15;;;24.80;99.90;;;;;;5059702;28;20187;-71
2021/06/06 07:59:47;;;;;;;6.68;1.92;;;24.90;99.90;;;;;;5065965;28;20189;-71
2021/06/06 08:02:14;;;;;;;10.68;2.50;;;24.90;99.90;;;;;;5065653;28;20187;-71
2021/06/06 08:04:41;;;;;;;9.40;2.20;;;24.90;99.90;;;;;;5062210;28;20190;-70
2021/06/06 08:07:07;;;;;;;9.68;2.17;;;25.00;99.90;;;;;;5056732;28;20202;-73
2021/06/06 08:09:34;;;;;;;7.40;2.05;;;25.10;99.90;;;;;;5065600;28;20187;-72
2021/06/06 08:12:00;;;;;;;2.92;1.83;;;25.20;99.90;;;;;;5062201;28;20214;-71
2021/06/06 08:14:26;;;;;;;4.53;1.80;;;25.20;99.90;;;;;;5059846;28;20739;-72
2021/06/06 08:17:01;;;;;;;7.30;2.28;;;25.20;99.90;;;;;;5061824;28;20191;-73
2021/06/06 08:19:28;;;;;;;13.85;2.25;;;25.30;99.90;;;;;;5062827;28;20544;-69
2021/06/06 08:21:55;;;;;;;6.32;2.05;;;25.40;99.90;;;;;;5042933;28;20180;-71
2021/06/06 08:24:21;;;;;;;3.40;1.85;;;25.30;99.90;;;;;;5065507;28;20516;-69
2021/06/06 08:26:48;;;;;;;6.07;2.35;;;25.40;99.90;;;;;;5056563;28;20187;-71
2021/06/06 08:29:15;;;;;;;4.32;1.65;;;25.60;99.90;;;;;;5063904;28;20190;-72
2021/06/06 08:31:44;;;;;;;5.45;2.10;;;25.70;99.90;;;;;;5053674;28;20188;-71
2021/06/06 08:34:11;;;;;;;6.80;2.00;;;25.70;99.90;;;;;;5063214;28;20230;-71
2021/06/06 08:36:46;;;;;;;6.20;2.25;;;25.90;99.90;;;;;;5056479;28;20184;-70
2021/06/06 08:39:23;;;;;;;6.43;2.15;;;25.80;99.90;;;;;;5042712;28;20259;-72
2021/06/06 08:42:27;;;;;;;6.68;2.10;;;25.70;99.90;;;;;;5054067;28;20187;-69
2021/06/06 08:46:06;;;;;;;7.15;2.40;;;26.00;99.90;;;;;;5049803;28;21832;-70
2021/06/06 08:48:33;;;;;;;4.22;2.20;;;25.80;99.90;;;;;;5044022;28;20685;-70
2021/06/06 08:51:41;;;;;;;4.47;2.00;;;25.90;99.90;;;;;;5050529;28;20221;-73
2021/06/06 08:54:20;;;;;;;7.15;2.30;;;26.10;99.90;;;;;;5062080;28;20856;-70
2021/06/06 08:56:56;;;;;;;5.70;2.00;;;26.00;99.90;;;;;;5056595;28;20298;-67
2021/06/06 08:59:54;;;;;;;10.13;1.80;;;26.10;99.90;;;;;;5055562;28;20179;-69
2021/06/06 09:02:37;;;;;;;9.95;2.17;;;26.20;99.90;;;;;;5059077;28;20199;-71
2021/06/06 09:05:10;;;;;;;4.60;2.00;;;26.40;99.90;;;;;;5059219;28;20214;-72
2021/06/06 09:07:45;;;;;;;5.13;1.90;;;26.30;99.90;;;;;;5058415;28;20870;-73
2021/06/06 09:10:25;;;;;;;4.03;1.88;;;26.30;99.90;;;;;;5061027;28;20194;-71
2021/06/06 09:12:51;;;;;;;3.40;2.08;;;26.40;99.90;;;;;;5062526;28;20183;-69
2021/06/06 09:15:21;;;;;;;6.88;2.05;;;26.60;99.90;;;;;;5058691;28;20264;-71
2021/06/06 09:17:57;;;;;;;9.10;1.90;;;26.60;99.90;;;;;;5058881;28;20230;-72
2021/06/06 09:20:37;;;;;;;3.97;2.08;;;26.70;99.90;;;;;;5060523;28;20727;-72
2021/06/06 09:23:28;;;;;;;5.28;2.00;;;26.70;99.90;;;;;;5040577;28;20184;-70
2021/06/06 09:26:18;;;;;;;3.35;1.75;;;27.10;99.90;;;;;;5055085;28;20195;-71
2021/06/06 09:28:49;;;;;;;8.15;2.42;;;27.20;99.90;;;;;;5042842;28;20194;-69
2021/06/06 09:31:18;;;;;;;16.75;2.35;;;27.30;99.90;;;;;;5051636;28;20285;-73
2021/06/06 09:34:08;;;;;;;8.90;2.35;;;27.40;99.90;;;;;;5058948;28;20191;-70
2021/06/06 09:36:56;;;;;;;8.55;1.85;;;27.40;99.90;;;;;;5050242;28;20187;-73
2021/06/06 09:39:25;;;;;;;16.95;2.35;;;27.40;99.90;;;;;;5050818;28;20226;-71
2021/06/06 09:41:59;;;;;;;8.02;2.20;;;27.40;99.90;;;;;;5054275;28;20187;-73
2021/06/06 09:44:33;;;;;;;7.43;1.83;;;27.40;99.90;;;;;;5058273;28;20644;-70
2021/06/06 09:47:06;;;;;;;12.10;2.03;;;27.40;99.90;;;;;;5051392;28;20174;-71
2021/06/06 09:49:40;;;;;;;6.03;1.90;;;27.50;99.90;;;;;;5040286;28;20182;-72
2021/06/06 09:52:27;;;;;;;4.50;2.13;;;27.70;99.90;;;;;;5038532;28;20197;-73
2021/06/06 09:55:09;;;;;;;5.53;1.90;;;27.50;99.40;;;;;;5052751;28;20567;-71
2021/06/06 09:57:41;;;;;;;8.30;1.77;;;27.80;99.40;;;;;;5051846;28;20662;-72
2021/06/06 10:00:24;;;;;;;4.80;1.77;;;27.80;98.20;;;;;;5058253;28;20838;-73
2021/06/06 10:03:05;;;;;;;4.93;1.83;;;28.10;98.10;;;;;;5058409;28;20197;-73
2021/06/06 10:05:41;;;;;;;4.97;1.98;;;27.80;97.00;;;;;;5084004;28;20234;-72
2021/06/06 10:08:27;;;;;;;3.50;1.83;;;27.70;97.00;;;;;;5061744;28;20207;-70
2021/06/06 10:11:17;;;;;;;5.63;2.03;;;27.80;97.00;;;;;;5075241;28;20195;-71
2021/06/06 10:13:53;;;;;;;3.17;1.75;;;27.80;97.20;;;;;;5061976;28;20195;-73
2021/06/06 10:16:33;;;;;;;5.75;2.25;;;27.90;96.80;;;;;;5059902;28;20293;-72
2021/06/06 10:19:12;;;;;;;6.35;2.10;;;28.10;96.80;;;;;;5063666;28;20189;-72
2021/06/06 10:21:39;;;;;;;5.05;2.03;;;28.00;96.70;;;;;;5065342;28;20306;-70
2021/06/06 10:24:21;;;;;;;5.50;1.95;;;28.10;95.70;;;;;;5047750;28;20186;-72
2021/06/06 10:26:56;;;;;;;7.05;2.20;;;27.80;96.80;;;;;;5066229;28;20194;-72
2021/06/06 10:30:40;;;;;;;7.57;2.10;;;28.10;96.50;;;;;;5064400;28;20858;-71
2021/06/06 10:33:46;;;;;;;4.10;2.28;;;27.90;96.60;;;;;;5046943;28;20319;-70
2021/06/06 10:36:47;;;;;;;3.95;1.90;;;27.50;96.00;;;;;;5060818;28;20595;-71
2021/06/06 10:39:27;;;;;;;5.82;2.00;;;27.40;94.50;;;;;;5063625;28;20219;-72
2021/06/06 10:42:23;;;;;;;2.70;1.67;;;27.30;96.20;;;;;;5063136;28;20193;-70
2021/06/06 10:45:28;;;;;;;5.07;1.90;;;27.30;96.00;;;;;;5061582;28;20191;-72
2021/06/06 10:48:14;;;;;;;5.95;2.00;;;27.40;96.50;;;;;;5066471;28;20412;-73
2021/06/06 10:50:52;;;;;;;7.28;2.00;;;27.60;95.70;;;;;;5065673;28;20244;-71
2021/06/06 10:53:26;;;;;;;7.60;1.90;;;27.70;96.30;;;;;;5062986;28;20183;-71
2021/06/06 10:56:30;;;;;;;6.57;1.98;;;27.80;95.70;;;;;;5049882;28;20202;-69
2021/06/06 10:59:07;;;;;;;4.60;2.13;;;27.70;94.30;;;;;;5065635;28;20232;-71
2021/06/06 11:01:42;;;;;;;6.55;2.33;;;27.50;95.30;;;;;;5062253;28;20539;-72
2021/06/06 11:04:18;;;;;;;8.32;2.15;;;27.40;95.70;;;;;;5064149;28;20182;-70
2021/06/06 11:07:23;;;;;;;8.70;2.10;;;27.50;95.50;;;;;;5043938;28;20213;-69
2021/06/06 11:10:20;;;;;;;9.63;2.47;;;27.50;96.10;;;;;;5064427;28;20183;-70
2021/06/06 11:12:52;;;;;;;11.85;1.92;;;27.50;96.20;;;;;;5063767;28;20273;-71
2021/06/06 11:16:17;;;;;;;7.55;2.30;;;27.50;96.20;;;;;;5065000;28;20211;-71
2021/06/06 11:19:04;;;;;;;4.45;1.90;;;27.60;96.00;;;;;;5044441;28;20203;-73
2021/06/06 11:21:36;;;;;;;7.25;1.92;;;27.50;95.90;;;;;;5066645;28;20186;-71
2021/06/06 11:24:42;;;;;;;10.60;2.30;;;27.40;95.40;;;;;;5059939;28;20187;-70
2021/06/06 11:27:11;;;;;;;4.85;1.90;;;27.50;96.20;;;;;;5063504;28;20199;-72
2021/06/06 11:30:29;;;;;;;4.78;2.00;;;27.60;95.30;;;;;;5063099;28;20191;-71
2021/06/06 11:33:09;;;;;;;7.45;1.70;;;27.60;95.90;;;;;;5061016;28;20286;-72
2021/06/06 11:35:36;;;;;;;7.13;1.92;;;27.40;95.40;;;;;;5048745;28;20207;-71
2021/06/06 11:38:31;;;;;;;7.50;2.17;;;27.40;94.50;;;;;;5057572;28;20651;-72
2021/06/06 11:41:33;;;;;;;6.25;2.00;;;27.50;93.70;;;;;;5044223;28;20187;-71
2021/06/06 11:44:19;;;;;;;4.82;2.05;;;27.50;94.90;;;;;;5076658;28;20958;-70
2021/06/06 11:47:06;;;;;;;7.78;2.00;;;27.50;94.90;;;;;;5064169;28;20686;-71
2021/06/06 11:50:01;;;;;;;6.30;1.98;;;27.60;94.60;;;;;;5046242;28;20194;-71
2021/06/06 11:52:45;;;;;;;4.80;1.70;;;27.80;94.10;;;;;;5062664;28;20186;-71
2021/06/06 11:55:37;;;;;;;6.35;1.80;;;27.50;92.80;;;;;;5048082;28;20707;-71
2021/06/06 11:58:33;;;;;;;5.60;1.98;;;27.80;93.60;;;;;;5060505;28;20183;-71
2021/06/06 12:01:23;;;;;;;9.93;1.90;;;27.60;93.60;;;;;;5062422;28;20175;-71
2021/06/06 12:04:04;;;;;;;4.85;1.98;;;27.60;93.70;;;;;;5057429;28;20175;-69
2021/06/06 12:06:31;;;;;;;9.48;2.28;;;27.60;93.70;;;;;;5066460;28;20245;-72
2021/06/06 12:09:12;;;;;;;5.40;1.95;;;27.70;93.10;;;;;;5047539;28;20179;-72
2021/06/06 12:11:41;;;;;;;9.32;1.85;;;27.50;94.20;;;;;;5064334;28;20574;-71
2021/06/06 12:14:28;;;;;;;6.25;2.22;;;27.30;93.70;;;;;;5065074;28;20211;-71
2021/06/06 12:17:20;;;;;;;5.55;2.00;;;27.50;93.30;;;;;;5043255;28;20219;-72
2021/06/06 12:19:57;;;;;;;5.55;2.00;;;27.40;93.40;;;;;;5061637;28;20517;-73
2021/06/06 12:22:39;;;;;;;4.38;2.10;;;27.30;93.80;;;;;;5066237;28;20175;-75
2021/06/06 12:25:12;;;;;;;3.72;1.80;;;27.40;93.60;;;;;;5065798;28;20588;-71
2021/06/06 12:27:53;;;;;;;8.65;2.40;;;27.30;93.40;;;;;;5059812;28;20909;-72
2021/06/06 12:30:55;;;;;;;8.93;2.15;;;27.30;94.10;;;;;;5049340;28;20272;-73
2021/06/06 12:33:42;;;;;;;7.57;1.98;;;27.30;94.20;;;;;;5047490;28;20205;-72
2021/06/06 12:36:29;;;;;;;7.22;1.95;;;27.40;94.00;;;;;;5066198;28;20716;-72
2021/06/06 12:39:03;;;;;;;4.30;1.98;;;27.50;94.00;;;;;;5058496;28;20179;-71
2021/06/06 12:41:34;;;;;;;6.13;2.10;;;27.60;93.40;;;;;;5058391;28;20174;-71
2021/06/06 12:44:02;;;;;;;6.93;2.15;;;27.40;93.60;;;;;;5064639;28;20184;-73
2021/06/06 12:46:29;;;;;;;7.05;2.22;;;27.40;94.20;;;;;;5049810;28;20195;-70
2021/06/06 12:49:05;;;;;;;7.80;2.22;;;27.40;94.70;;;;;;5041143;28;20193;-71
2021/06/06 12:51:50;;;;;;;5.85;2.10;;;27.40;95.00;;;;;;5048826;28;20566;-74
2021/06/06 12:54:25;;;;;;;8.00;1.80;;;27.50;94.40;;;;;;5062269;28;20182;-71
2021/06/06 12:57:02;;;;;;;9.10;2.60;;;27.50;94.20;;;;;;5061722;28;20218;-70
2021/06/06 12:59:29;;;;;;;8.07;2.60;;;27.60;93.10;;;;;;5063670;28;20236;-69
2021/06/06 13:02:24;;;;;;;7.45;2.00;;;27.60;92.40;;;;;;5062491;28;20215;-72
2021/06/06 13:05:12;;;;;;;3.58;1.77;;;27.30;92.50;;;;;;5061363;28;20722;-70
2021/06/06 13:07:41;;;;;;;6.85;2.15;;;27.40;92.00;;;;;;5064552;28;20588;-71
2021/06/06 13:10:33;;;;;;;9.77;1.83;;;27.40;92.00;;;;;;5059956;28;20198;-71
2021/06/06 13:13:01;;;;;;;4.90;2.08;;;27.30;92.30;;;;;;5063358;28;20207;-71
2021/06/06 13:15:42;;;;;;;8.48;2.05;;;27.30;92.10;;;;;;5062471;28;20219;-71
2021/06/06 13:18:25;;;;;;;6.03;2.10;;;27.10;92.30;;;;;;5063045;28;20261;-72
2021/06/06 13:20:55;;;;;;;4.53;2.20;;;27.10;92.30;;;;;;5061036;28;20712;-73
2021/06/06 13:23:24;;;;;;;5.90;2.15;;;27.10;92.10;;;;;;5058757;28;20694;-70
2021/06/06 13:25:51;;;;;;;8.57;2.40;;;27.20;92.20;;;;;;5055956;28;20199;-72
2021/06/06 13:28:42;;;;;;;6.80;1.98;;;26.90;93.50;;;;;;5045211;28;20192;-70
2021/06/06 13:31:26;;;;;;;6.95;2.40;;;27.10;92.80;;;;;;5061336;28;20183;-70
2021/06/06 13:33:53;;;;;;;9.48;2.30;;;27.00;93.40;;;;;;5060288;28;20191;-72